createdAt,value
2016-05-21T00:00:21.514Z,18.1
2016-05-21T00:01:21.719Z,18.07
2016-05-21T00:02:21.784Z,18.1
2016-05-21T00:03:21.834Z,18.15
2016-05-21T00:04:21.883Z,18.19
2016-05-21T00:05:21.949Z,18.04
2016-05-21T00:06:21.997Z,18.16
2016-05-21T00:07:22.033Z,18.15
2016-05-21T00:08:21.957Z,18.08
2016-05-21T00:09:22.163Z,18.11
2016-05-21T00:10:22.180Z,18.1
2016-05-21T00:11:21.977Z,18.05
2016-05-21T00:12:22.308Z,18.15
2016-05-21T00:13:22.389Z,18.04
2016-05-21T00:14:22.438Z,18.15
2016-05-21T00:15:22.504Z,18.07
2016-05-21T00:16:22.437Z,18.07
2016-05-21T00:17:22.632Z,18.13
2016-05-21T00:18:22.547Z,18.1
2016-05-21T00:19:22.758Z,18.07
2016-05-21T00:20:22.813Z,18.11
2016-05-21T00:21:22.851Z,18.11
2016-05-21T00:22:22.919Z,18.1
2016-05-21T00:23:22.986Z,18.11
2016-05-21T00:24:23.007Z,18.13
2016-05-21T00:25:23.058Z,18.1
2016-05-21T00:26:22.984Z,18.07
2016-05-21T00:27:23.019Z,18.15
2016-05-21T00:28:23.210Z,18.05
2016-05-21T00:29:23.338Z,18.1
2016-05-21T00:30:23.325Z,18.11
2016-05-21T00:31:23.376Z,18.04
2016-05-21T00:32:23.441Z,18.1
2016-05-21T00:33:23.490Z,18.1
2016-05-21T00:34:23.525Z,18.1
2016-05-21T00:35:23.434Z,18.1
2016-05-21T00:36:23.639Z,18.1
2016-05-21T00:37:23.673Z,18.1
2016-05-21T00:38:23.723Z,18.15
2016-05-21T00:39:23.616Z,18.04
2016-05-21T00:40:23.837Z,18.08
2016-05-21T00:41:23.887Z,18.07
2016-05-21T00:42:23.921Z,18.11
2016-05-21T00:43:24.002Z,18.08
2016-05-21T00:44:24.035Z,18.13
2016-05-21T00:45:24.070Z,18.1
2016-05-21T00:46:23.979Z,18.04
2016-05-21T00:47:24.044Z,18.07
2016-05-21T00:48:24.234Z,18.11
2016-05-21T00:49:24.127Z,18.1
2016-05-21T00:50:24.318Z,18.07
2016-05-21T00:51:24.399Z,18.1
2016-05-21T00:52:24.291Z,18.11
2016-05-21T00:53:24.482Z,18.07
2016-05-21T00:54:24.546Z,18.11
2016-05-21T00:55:24.596Z,18.07
2016-05-21T00:56:24.912Z,18.15
2016-05-21T00:57:24.695Z,18.07
2016-05-21T00:58:24.745Z,18.04
2016-05-21T00:59:24.763Z,18.1
2016-05-21T01:00:24.829Z,18.08
2016-05-21T01:01:24.894Z,18.08
2016-05-21T01:02:24.928Z,18.11
2016-05-21T01:03:24.853Z,18.1
2016-05-21T01:04:25.027Z,18.04
2016-05-21T01:05:25.076Z,18.1
2016-05-21T01:06:25.001Z,18.05
2016-05-21T01:07:25.192Z,18.07
2016-05-21T01:08:25.225Z,18.08
2016-05-21T01:09:25.322Z,18.1
2016-05-21T01:10:25.339Z,18.1
2016-05-21T01:11:25.405Z,18.08
2016-05-21T01:12:25.470Z,18.1
2016-05-21T01:13:25.519Z,18.08
2016-05-21T01:14:25.383Z,18.07
2016-05-21T01:15:25.447Z,18.13
2016-05-21T01:16:25.481Z,18.04
2016-05-21T01:17:25.703Z,18.03
2016-05-21T01:18:25.736Z,18.07
2016-05-21T01:19:25.786Z,18.05
2016-05-21T01:20:25.711Z,18.1
2016-05-21T01:21:25.744Z,18.05
2016-05-21T01:22:25.950Z,18.03
2016-05-21T01:23:25.860Z,18.1
2016-05-21T01:24:26.080Z,18.1
2016-05-21T01:25:26.099Z,18.05
2016-05-21T01:26:26.898Z,18.07
2016-05-21T01:27:26.229Z,18.1
2016-05-21T01:28:26.248Z,18.08
2016-05-21T01:29:26.329Z,18.01
2016-05-21T01:30:26.347Z,18.03
2016-05-21T01:31:26.412Z,18.05
2016-05-21T01:32:26.306Z,18.03
2016-05-21T01:33:26.480Z,18.04
2016-05-21T01:34:26.545Z,18.04
2016-05-21T01:35:26.470Z,18.04
2016-05-21T01:36:26.645Z,18.03
2016-05-21T01:37:26.694Z,18.04
2016-05-21T01:38:26.775Z,18.04
2016-05-21T01:39:26.809Z,18.01
2016-05-21T01:40:26.842Z,18.07
2016-05-21T01:41:26.783Z,18.05
2016-05-21T01:42:26.958Z,18.04
2016-05-21T01:43:27.023Z,18.05
2016-05-21T01:44:27.057Z,18.1
2016-05-21T01:45:27.106Z,18.07
2016-05-21T01:46:27.172Z,18.01
2016-05-21T01:47:27.205Z,18.01
2016-05-21T01:48:27.255Z,18.04
2016-05-21T01:49:27.336Z,18.03
2016-05-21T01:50:27.369Z,18.04
2016-05-21T01:51:27.419Z,18.03
2016-05-21T01:52:27.484Z,18.05
2016-05-21T01:53:27.393Z,18.01
2016-05-21T01:54:27.568Z,18.04
2016-05-21T01:55:27.602Z,18.04
2016-05-21T01:56:27.777Z,18.07
2016-05-21T01:57:27.732Z,18.05
2016-05-21T01:58:27.751Z,18.03
2016-05-21T01:59:27.816Z,18.04
2016-05-21T02:00:27.881Z,18.01
2016-05-21T02:01:27.930Z,17.98
2016-05-21T02:02:27.964Z,18
2016-05-21T02:03:28.045Z,18.03
2016-05-21T02:04:28.095Z,17.98
2016-05-21T02:05:28.112Z,18
2016-05-21T02:06:28.178Z,18.01
2016-05-21T02:07:28.071Z,17.98
2016-05-21T02:08:28.261Z,18
2016-05-21T02:09:28.311Z,18.03
2016-05-21T02:10:28.392Z,18.04
2016-05-21T02:11:28.426Z,17.97
2016-05-21T02:12:28.460Z,18
2016-05-21T02:13:28.541Z,17.97
2016-05-21T02:14:28.590Z,18
2016-05-21T02:15:28.625Z,18.03
2016-05-21T02:16:28.705Z,17.95
2016-05-21T02:17:28.598Z,18.03
2016-05-21T02:18:28.772Z,17.98
2016-05-21T02:19:28.682Z,17.98
2016-05-21T02:20:29.106Z,18.01
2016-05-21T02:21:28.938Z,18.04
2016-05-21T02:22:28.971Z,17.97
2016-05-21T02:23:29.021Z,17.92
2016-05-21T02:24:29.102Z,18
2016-05-21T02:25:29.152Z,17.98
2016-05-21T02:26:29.060Z,17.94
2016-05-21T02:27:29.249Z,17.97
2016-05-21T02:28:29.285Z,17.94
2016-05-21T02:29:29.365Z,18.01
2016-05-21T02:30:29.399Z,17.98
2016-05-21T02:31:29.433Z,17.92
2016-05-21T02:32:29.373Z,17.97
2016-05-21T02:33:29.563Z,17.98
2016-05-21T02:34:29.612Z,17.98
2016-05-21T02:35:29.491Z,17.98
2016-05-21T02:36:29.695Z,17.95
2016-05-21T02:37:29.762Z,17.92
2016-05-21T02:38:29.796Z,17.9
2016-05-21T02:39:29.845Z,17.92
2016-05-21T02:40:29.910Z,17.95
2016-05-21T02:41:30.006Z,17.97
2016-05-21T02:42:29.837Z,18
2016-05-21T02:43:30.075Z,17.98
2016-05-21T02:44:30.108Z,18
2016-05-21T02:45:30.158Z,17.98
2016-05-21T02:46:30.207Z,18
2016-05-21T02:47:30.257Z,17.98
2016-05-21T02:48:30.166Z,17.97
2016-05-21T02:49:30.372Z,17.98
2016-05-21T02:50:30.266Z,17.98
2016-05-21T02:51:30.705Z,17.95
2016-05-21T02:52:30.677Z,18
2016-05-21T02:53:30.555Z,17.89
2016-05-21T02:54:30.619Z,17.95
2016-05-21T02:55:30.700Z,17.89
2016-05-21T02:56:30.750Z,18
2016-05-21T02:57:30.752Z,17.89
2016-05-21T02:58:30.818Z,18
2016-05-21T02:59:30.868Z,18
2016-05-21T03:00:30.777Z,18.03
2016-05-21T03:01:30.966Z,17.9
2016-05-21T03:02:31.015Z,17.94
2016-05-21T03:03:31.066Z,17.94
2016-05-21T03:04:31.115Z,18
2016-05-21T03:05:31.165Z,17.95
2016-05-21T03:06:31.229Z,17.95
2016-05-21T03:07:31.264Z,17.98
2016-05-21T03:08:31.314Z,17.95
2016-05-21T03:09:31.395Z,17.97
2016-05-21T03:10:31.444Z,17.97
2016-05-21T03:11:31.962Z,17.95
2016-05-21T03:12:31.512Z,17.87
2016-05-21T03:13:31.577Z,17.92
2016-05-21T03:14:31.626Z,17.92
2016-05-21T03:15:31.676Z,18
2016-05-21T03:16:31.710Z,17.89
2016-05-21T03:17:31.619Z,17.97
2016-05-21T03:18:31.669Z,17.92
2016-05-21T03:19:31.858Z,17.89
2016-05-21T03:20:31.925Z,17.95
2016-05-21T03:21:31.974Z,17.89
2016-05-21T03:22:31.867Z,17.94
2016-05-21T03:23:31.933Z,17.97
2016-05-21T03:24:32.122Z,17.97
2016-05-21T03:25:32.172Z,17.94
2016-05-21T03:26:32.221Z,17.94
2016-05-21T03:27:32.272Z,17.9
2016-05-21T03:28:32.336Z,17.9
2016-05-21T03:29:32.385Z,17.87
2016-05-21T03:30:32.263Z,17.86
2016-05-21T03:31:32.501Z,17.87
2016-05-21T03:32:32.534Z,17.87
2016-05-21T03:33:32.584Z,17.94
2016-05-21T03:34:32.649Z,17.86
2016-05-21T03:35:32.699Z,17.9
2016-05-21T03:36:32.732Z,17.85
2016-05-21T03:37:32.642Z,17.86
2016-05-21T03:38:32.832Z,17.95
2016-05-21T03:39:32.881Z,17.89
2016-05-21T03:40:32.962Z,17.86
2016-05-21T03:41:32.824Z,17.8
2016-05-21T03:42:33.264Z,17.92
2016-05-21T03:43:33.095Z,17.83
2016-05-21T03:44:33.129Z,17.82
2016-05-21T03:45:33.178Z,17.89
2016-05-21T03:46:33.259Z,17.9
2016-05-21T03:47:33.278Z,17.9
2016-05-21T03:48:33.328Z,17.83
2016-05-21T03:49:33.424Z,17.9
2016-05-21T03:50:33.270Z,17.89
2016-05-21T03:51:33.476Z,17.87
2016-05-21T03:52:33.541Z,17.83
2016-05-21T03:53:33.591Z,17.83
2016-05-21T03:54:33.625Z,17.86
2016-05-21T03:55:33.549Z,17.83
2016-05-21T03:56:33.755Z,17.78
2016-05-21T03:57:33.805Z,17.83
2016-05-21T03:58:33.855Z,17.89
2016-05-21T03:59:33.919Z,17.79
2016-05-21T04:00:33.938Z,17.87
2016-05-21T04:01:34.002Z,17.86
2016-05-21T04:02:34.052Z,17.8
2016-05-21T04:03:34.102Z,17.85
2016-05-21T04:04:34.152Z,17.83
2016-05-21T04:05:34.185Z,17.86
2016-05-21T04:06:34.235Z,17.85
2016-05-21T04:07:34.301Z,17.87
2016-05-21T04:08:34.334Z,17.83
2016-05-21T04:09:34.384Z,17.85
2016-05-21T04:10:34.449Z,17.86
2016-05-21T04:11:34.529Z,17.9
2016-05-21T04:12:34.532Z,17.8
2016-05-21T04:13:34.614Z,17.83
2016-05-21T04:14:34.648Z,17.74
2016-05-21T04:15:34.541Z,17.83
2016-05-21T04:16:34.747Z,17.78
2016-05-21T04:17:34.812Z,17.8
2016-05-21T04:18:34.861Z,17.79
2016-05-21T04:19:34.911Z,17.72
2016-05-21T04:20:34.945Z,17.76
2016-05-21T04:21:35.011Z,17.83
2016-05-21T04:22:35.059Z,17.78
2016-05-21T04:23:34.953Z,17.78
2016-05-21T04:24:35.158Z,17.9
2016-05-21T04:25:35.053Z,17.83
2016-05-21T04:26:35.491Z,17.83
2016-05-21T04:27:35.151Z,17.85
2016-05-21T04:28:35.357Z,17.85
2016-05-21T04:29:35.422Z,17.76
2016-05-21T04:30:35.456Z,17.78
2016-05-21T04:31:35.490Z,17.79
2016-05-21T04:32:35.555Z,17.83
2016-05-21T04:33:35.604Z,17.74
2016-05-21T04:34:35.670Z,17.78
2016-05-21T04:35:35.719Z,17.74
2016-05-21T04:36:35.768Z,17.86
2016-05-21T04:37:35.804Z,17.72
2016-05-21T04:38:35.868Z,17.78
2016-05-21T04:39:35.918Z,17.74
2016-05-21T04:40:35.952Z,17.83
2016-05-21T04:41:36.610Z,17.8
2016-05-21T04:42:36.051Z,17.8
2016-05-21T04:43:36.131Z,17.85
2016-05-21T04:44:36.181Z,17.79
2016-05-21T04:45:36.200Z,17.79
2016-05-21T04:46:36.296Z,17.83
2016-05-21T04:47:36.158Z,17.74
2016-05-21T04:48:36.348Z,17.78
2016-05-21T04:49:36.414Z,17.87
2016-05-21T04:50:36.479Z,17.83
2016-05-21T04:51:36.512Z,17.8
2016-05-21T04:52:36.562Z,17.79
2016-05-21T04:53:36.627Z,17.82
2016-05-21T04:54:36.677Z,17.79
2016-05-21T04:55:36.727Z,17.79
2016-05-21T04:56:36.605Z,17.83
2016-05-21T04:57:36.669Z,17.8
2016-05-21T04:58:36.890Z,17.74
2016-05-21T04:59:36.909Z,17.83
2016-05-21T05:00:36.958Z,17.79
2016-05-21T05:01:37.024Z,17.8
2016-05-21T05:02:37.057Z,17.83
2016-05-21T05:03:37.107Z,17.8
2016-05-21T05:04:37.188Z,17.82
2016-05-21T05:05:37.222Z,17.8
2016-05-21T05:06:37.287Z,17.8
2016-05-21T05:07:37.305Z,17.76
2016-05-21T05:08:37.057Z,17.76
2016-05-21T05:09:37.436Z,17.74
2016-05-21T05:10:37.454Z,17.82
2016-05-21T05:11:37.520Z,17.78
2016-05-21T05:12:37.585Z,17.76
2016-05-21T05:13:37.462Z,17.79
2016-05-21T05:14:37.668Z,17.79
2016-05-21T05:15:37.734Z,17.78
2016-05-21T05:16:37.799Z,17.85
2016-05-21T05:17:37.832Z,17.8
2016-05-21T05:18:37.898Z,17.74
2016-05-21T05:19:37.916Z,17.79
2016-05-21T05:20:37.981Z,17.76
2016-05-21T05:21:38.047Z,17.86
2016-05-21T05:22:38.064Z,17.83
2016-05-21T05:23:38.130Z,17.85
2016-05-21T05:24:38.055Z,17.79
2016-05-21T05:25:38.213Z,17.85
2016-05-21T05:26:38.356Z,17.74
2016-05-21T05:27:38.188Z,17.8
2016-05-21T05:28:38.361Z,17.78
2016-05-21T05:29:38.272Z,17.8
2016-05-21T05:30:38.492Z,17.74
2016-05-21T05:31:38.526Z,17.78
2016-05-21T05:32:38.466Z,17.74
2016-05-21T05:33:38.641Z,17.8
2016-05-21T05:34:38.675Z,17.72
2016-05-21T05:35:38.724Z,17.79
2016-05-21T05:36:38.791Z,17.78
2016-05-21T05:37:38.682Z,17.78
2016-05-21T05:38:38.873Z,17.78
2016-05-21T05:39:38.954Z,17.8
2016-05-21T05:40:38.988Z,17.79
2016-05-21T05:41:39.037Z,17.8
2016-05-21T05:42:39.103Z,17.79
2016-05-21T05:43:39.152Z,17.78
2016-05-21T05:44:39.187Z,17.71
2016-05-21T05:45:39.251Z,17.79
2016-05-21T05:46:39.285Z,17.78
2016-05-21T05:47:39.334Z,17.74
2016-05-21T05:48:39.087Z,17.8
2016-05-21T05:49:39.278Z,17.78
2016-05-21T05:50:39.484Z,17.83
2016-05-21T05:51:39.548Z,17.76
2016-05-21T05:52:39.583Z,17.8
2016-05-21T05:53:39.633Z,17.74
2016-05-21T05:54:39.713Z,17.74
2016-05-21T05:55:39.747Z,17.68
2016-05-21T05:56:39.687Z,17.76
2016-05-21T05:57:39.862Z,17.8
2016-05-21T05:58:39.739Z,17.76
2016-05-21T05:59:39.945Z,17.79
2016-05-21T06:00:39.822Z,17.78
2016-05-21T06:01:39.872Z,17.79
2016-05-21T06:02:40.094Z,17.74
2016-05-21T06:03:40.144Z,17.7
2016-05-21T06:04:40.178Z,17.79
2016-05-21T06:05:40.258Z,17.78
2016-05-21T06:06:40.152Z,17.78
2016-05-21T06:07:40.341Z,17.85
2016-05-21T06:08:40.407Z,17.78
2016-05-21T06:09:40.457Z,17.79
2016-05-21T06:10:40.507Z,17.79
2016-05-21T06:11:40.399Z,17.78
2016-05-21T06:12:40.590Z,17.8
2016-05-21T06:13:40.655Z,17.79
2016-05-21T06:14:40.689Z,17.76
2016-05-21T06:15:40.738Z,17.8
2016-05-21T06:16:40.648Z,17.72
2016-05-21T06:17:40.853Z,17.79
2016-05-21T06:18:40.887Z,17.74
2016-05-21T06:19:40.968Z,17.79
2016-05-21T06:20:41.001Z,17.76
2016-05-21T06:21:41.051Z,17.79
2016-05-21T06:22:41.117Z,17.76
2016-05-21T06:23:41.151Z,17.8
2016-05-21T06:24:41.200Z,17.8
2016-05-21T06:25:41.250Z,17.74
2016-05-21T06:26:41.315Z,17.85
2016-05-21T06:27:41.349Z,17.78
2016-05-21T06:28:41.398Z,17.82
2016-05-21T06:29:41.464Z,17.83
2016-05-21T06:30:41.513Z,17.76
2016-05-21T06:31:41.563Z,17.74
2016-05-21T06:32:41.612Z,17.78
2016-05-21T06:33:41.661Z,17.78
2016-05-21T06:34:41.946Z,17.78
2016-05-21T06:35:41.761Z,17.82
2016-05-21T06:36:41.811Z,17.95
2016-05-21T06:37:41.860Z,17.83
2016-05-21T06:38:41.754Z,17.83
2016-05-21T06:39:41.944Z,17.92
2016-05-21T06:40:42.025Z,17.87
2016-05-21T06:41:42.026Z,17.82
2016-05-21T06:42:42.108Z,17.86
2016-05-21T06:43:42.173Z,17.85
2016-05-21T06:44:41.910Z,17.74
2016-05-21T06:45:42.272Z,17.74
2016-05-21T06:46:42.321Z,17.78
2016-05-21T06:47:42.387Z,17.8
2016-05-21T06:48:42.421Z,17.85
2016-05-21T06:49:42.455Z,17.86
2016-05-21T06:50:42.348Z,17.78
2016-05-21T06:51:42.414Z,17.85
2016-05-21T06:52:42.619Z,17.89
2016-05-21T06:53:42.653Z,17.86
2016-05-21T06:54:42.718Z,17.87
2016-05-21T06:55:42.784Z,17.85
2016-05-21T06:56:43.302Z,17.82
2016-05-21T06:57:42.867Z,17.86
2016-05-21T06:58:42.948Z,17.85
2016-05-21T06:59:42.950Z,17.8
2016-05-21T07:00:42.859Z,17.89
2016-05-21T07:01:43.066Z,17.83
2016-05-21T07:02:43.114Z,17.85
2016-05-21T07:03:43.180Z,17.85
2016-05-21T07:04:43.214Z,17.85
2016-05-21T07:05:43.264Z,17.9
2016-05-21T07:06:43.329Z,17.83
2016-05-21T07:07:43.378Z,17.86
2016-05-21T07:08:43.256Z,17.89
2016-05-21T07:09:43.477Z,17.98
2016-05-21T07:10:43.526Z,17.94
2016-05-21T07:11:44.046Z,17.94
2016-05-21T07:12:43.641Z,17.92
2016-05-21T07:13:43.691Z,17.95
2016-05-21T07:14:43.710Z,17.98
2016-05-21T07:15:43.790Z,17.94
2016-05-21T07:16:43.824Z,18
2016-05-21T07:17:43.874Z,17.95
2016-05-21T07:18:43.783Z,17.98
2016-05-21T07:19:43.989Z,17.92
2016-05-21T07:20:44.023Z,17.98
2016-05-21T07:21:44.104Z,17.97
2016-05-21T07:22:44.153Z,17.98
2016-05-21T07:23:44.187Z,17.98
2016-05-21T07:24:44.220Z,18.01
2016-05-21T07:25:44.287Z,17.97
2016-05-21T07:26:44.414Z,18.03
2016-05-21T07:27:44.228Z,17.89
2016-05-21T07:28:44.420Z,17.98
2016-05-21T07:29:44.469Z,17.98
2016-05-21T07:30:44.534Z,17.97
2016-05-21T07:31:44.584Z,17.97
2016-05-21T07:32:44.633Z,17.97
2016-05-21T07:33:44.698Z,18.03
2016-05-21T07:34:44.732Z,18
2016-05-21T07:35:44.782Z,17.92
2016-05-21T07:36:44.847Z,18.01
2016-05-21T07:37:44.896Z,18.03
2016-05-21T07:38:44.930Z,18.04
2016-05-21T07:39:44.996Z,18.03
2016-05-21T07:40:45.030Z,18.01
2016-05-21T07:41:45.110Z,18
2016-05-21T07:42:45.144Z,18.05
2016-05-21T07:43:45.179Z,18
2016-05-21T07:44:45.259Z,18.08
2016-05-21T07:45:45.293Z,18.07
2016-05-21T07:46:45.327Z,18.03
2016-05-21T07:47:45.393Z,18.04
2016-05-21T07:48:45.457Z,18.07
2016-05-21T07:49:45.476Z,18.07
2016-05-21T07:50:45.385Z,18.13
2016-05-21T07:51:45.590Z,18.1
2016-05-21T07:52:45.483Z,18.03
2016-05-21T07:53:45.690Z,18.07
2016-05-21T07:54:45.739Z,18.13
2016-05-21T07:55:45.820Z,18.03
2016-05-21T07:56:46.214Z,18.08
2016-05-21T07:57:45.887Z,18.11
2016-05-21T07:58:45.984Z,18.16
2016-05-21T07:59:46.003Z,18.15
2016-05-21T08:00:46.053Z,18.15
2016-05-21T08:01:46.102Z,18.07
2016-05-21T08:02:46.151Z,18.13
2016-05-21T08:03:46.185Z,18.13
2016-05-21T08:04:46.094Z,18.13
2016-05-21T08:05:46.300Z,18.18
2016-05-21T08:06:46.350Z,18.13
2016-05-21T08:07:46.399Z,18.11
2016-05-21T08:08:46.292Z,18.07
2016-05-21T08:09:46.499Z,18.11
2016-05-21T08:10:46.563Z,18.15
2016-05-21T08:11:46.472Z,18.15
2016-05-21T08:12:46.647Z,18.13
2016-05-21T08:13:46.727Z,18.15
2016-05-21T08:14:46.763Z,18.11
2016-05-21T08:15:46.654Z,18.1
2016-05-21T08:16:46.861Z,18.15
2016-05-21T08:17:46.926Z,18.1
2016-05-21T08:18:46.804Z,18.16
2016-05-21T08:19:46.994Z,18.13
2016-05-21T08:20:46.903Z,18.11
2016-05-21T08:21:47.109Z,18.13
2016-05-21T08:22:47.159Z,18.08
2016-05-21T08:23:47.207Z,18.07
2016-05-21T08:24:47.273Z,18.11
2016-05-21T08:25:47.307Z,18.07
2016-05-21T08:26:47.044Z,18.1
2016-05-21T08:27:47.437Z,18.11
2016-05-21T08:28:47.471Z,18.13
2016-05-21T08:29:47.537Z,18.15
2016-05-21T08:30:47.586Z,18.11
2016-05-21T08:31:47.448Z,18.07
2016-05-21T08:32:47.513Z,18.15
2016-05-21T08:33:47.563Z,18.13
2016-05-21T08:34:47.753Z,18.2
2016-05-21T08:35:47.834Z,18.18
2016-05-21T08:36:47.884Z,18.11
2016-05-21T08:37:47.917Z,18.08
2016-05-21T08:38:47.983Z,18.16
2016-05-21T08:39:48.032Z,18.08
2016-05-21T08:40:48.082Z,18.15
2016-05-21T08:41:48.225Z,18.1
2016-05-21T08:42:48.180Z,18.2
2016-05-21T08:43:48.215Z,18.16
2016-05-21T08:44:48.280Z,18.19
2016-05-21T08:45:48.313Z,18.22
2016-05-21T08:46:48.363Z,18.15
2016-05-21T08:47:48.272Z,18.15
2016-05-21T08:48:48.463Z,18.19
2016-05-21T08:49:48.356Z,18.08
2016-05-21T08:50:48.577Z,18.2
2016-05-21T08:51:48.470Z,18.11
2016-05-21T08:52:48.535Z,18.16
2016-05-21T08:53:48.757Z,18.11
2016-05-21T08:54:48.791Z,18.13
2016-05-21T08:55:48.825Z,18.16
2016-05-21T08:56:48.890Z,18.15
2016-05-21T08:57:48.768Z,18.23
2016-05-21T08:58:48.974Z,18.11
2016-05-21T08:59:48.883Z,18.07
2016-05-21T09:00:49.089Z,18.15
2016-05-21T09:01:49.122Z,18.15
2016-05-21T09:02:49.188Z,18.11
2016-05-21T09:03:49.253Z,18.15
2016-05-21T09:04:49.286Z,18.16
2016-05-21T09:05:49.337Z,18.13
2016-05-21T09:06:49.402Z,18.15
2016-05-21T09:07:49.420Z,18.11
2016-05-21T09:08:49.329Z,18.15
2016-05-21T09:09:49.567Z,18.1
2016-05-21T09:10:49.600Z,18.2
2016-05-21T09:11:49.837Z,18.04
2016-05-21T09:12:49.527Z,18.08
2016-05-21T09:13:49.733Z,18.18
2016-05-21T09:14:49.814Z,18.15
2016-05-21T09:15:49.863Z,18.19
2016-05-21T09:16:49.882Z,18.08
2016-05-21T09:17:49.985Z,18.19
2016-05-21T09:18:50.040Z,18.25
2016-05-21T09:19:49.954Z,18.16
2016-05-21T09:20:50.025Z,18.22
2016-05-21T09:21:50.267Z,18.05
2016-05-21T09:22:50.308Z,18.18
2016-05-21T09:23:50.365Z,18.25
2016-05-21T09:24:50.423Z,18.23
2016-05-21T09:25:50.496Z,18.22
2016-05-21T09:26:50.396Z,18.2
2016-05-21T09:27:50.589Z,18.16
2016-05-21T09:28:50.688Z,18.19
2016-05-21T09:29:50.569Z,18.2
2016-05-21T09:30:50.605Z,18.19
2016-05-21T09:31:50.814Z,18.23
2016-05-21T09:32:50.881Z,18.2
2016-05-21T09:33:50.899Z,18.23
2016-05-21T09:34:50.967Z,18.25
2016-05-21T09:35:50.845Z,18.23
2016-05-21T09:36:51.083Z,18.18
2016-05-21T09:37:50.961Z,18.18
2016-05-21T09:38:51.168Z,18.2
2016-05-21T09:39:51.233Z,18.23
2016-05-21T09:40:51.283Z,18.28
2016-05-21T09:41:51.333Z,18.16
2016-05-21T09:42:51.399Z,18.25
2016-05-21T09:43:51.448Z,18.19
2016-05-21T09:44:51.481Z,18.25
2016-05-21T09:45:51.531Z,18.31
2016-05-21T09:46:51.596Z,18.19
2016-05-21T09:47:51.631Z,18.28
2016-05-21T09:48:51.696Z,18.26
2016-05-21T09:49:51.744Z,18.33
2016-05-21T09:50:51.795Z,18.29
2016-05-21T09:51:51.844Z,18.26
2016-05-21T09:52:51.737Z,18.28
2016-05-21T09:53:51.786Z,18.28
2016-05-21T09:54:52.008Z,18.23
2016-05-21T09:55:51.870Z,18.25
2016-05-21T09:56:52.091Z,18.26
2016-05-21T09:57:52.141Z,18.25
2016-05-21T09:58:52.191Z,18.23
2016-05-21T09:59:52.241Z,18.29
2016-05-21T10:00:52.305Z,18.25
2016-05-21T10:01:52.355Z,18.25
2016-05-21T10:02:52.389Z,18.28
2016-05-21T10:03:52.283Z,18.28
2016-05-21T10:04:52.473Z,18.31
2016-05-21T10:05:52.429Z,18.26
2016-05-21T10:06:52.604Z,18.26
2016-05-21T10:07:52.637Z,18.28
2016-05-21T10:08:52.749Z,18.35
2016-05-21T10:09:52.612Z,18.26
2016-05-21T10:10:52.785Z,18.25
2016-05-21T10:11:53.226Z,18.28
2016-05-21T10:12:52.916Z,18.37
2016-05-21T10:13:52.934Z,18.23
2016-05-21T10:14:52.859Z,18.28
2016-05-21T10:15:52.892Z,18.33
2016-05-21T10:16:53.115Z,18.4
2016-05-21T10:17:53.164Z,18.37
2016-05-21T10:18:53.197Z,18.34
2016-05-21T10:19:53.122Z,18.35
2016-05-21T10:20:53.313Z,18.35
2016-05-21T10:21:53.347Z,18.37
2016-05-21T10:22:53.397Z,18.34
2016-05-21T10:23:53.306Z,18.35
2016-05-21T10:24:53.339Z,18.34
2016-05-21T10:25:53.544Z,18.35
2016-05-21T10:26:53.610Z,18.4
2016-05-21T10:27:53.519Z,18.37
2016-05-21T10:28:53.725Z,18.37
2016-05-21T10:29:53.758Z,18.34
2016-05-21T10:30:53.668Z,18.4
2016-05-21T10:31:53.874Z,18.35
2016-05-21T10:32:53.924Z,18.4
2016-05-21T10:33:53.988Z,18.38
2016-05-21T10:34:54.022Z,18.35
2016-05-21T10:35:54.057Z,18.33
2016-05-21T10:36:54.122Z,18.37
2016-05-21T10:37:54.015Z,18.41
2016-05-21T10:38:54.205Z,18.41
2016-05-21T10:39:54.271Z,18.41
2016-05-21T10:40:54.179Z,18.41
2016-05-21T10:41:54.228Z,18.43
2016-05-21T10:42:54.418Z,18.37
2016-05-21T10:43:54.484Z,18.38
2016-05-21T10:44:54.549Z,18.38
2016-05-21T10:45:54.567Z,18.4
2016-05-21T10:46:54.476Z,18.37
2016-05-21T10:47:54.698Z,18.38
2016-05-21T10:48:54.717Z,18.41
2016-05-21T10:49:54.781Z,18.43
2016-05-21T10:50:54.831Z,18.41
2016-05-21T10:51:54.881Z,18.43
2016-05-21T10:52:54.774Z,18.44
2016-05-21T10:53:54.980Z,18.43
2016-05-21T10:54:55.029Z,18.44
2016-05-21T10:55:55.095Z,18.38
2016-05-21T10:56:55.176Z,18.38
2016-05-21T10:57:55.036Z,18.41
2016-05-21T10:58:55.244Z,18.41
2016-05-21T10:59:55.277Z,18.45
2016-05-21T11:00:55.342Z,18.44
2016-05-21T11:01:55.391Z,18.45
2016-05-21T11:02:55.426Z,18.4
2016-05-21T11:03:55.475Z,18.4
2016-05-21T11:04:55.555Z,18.4
2016-05-21T11:05:55.605Z,18.37
2016-05-21T11:06:55.671Z,18.55
2016-05-21T11:07:55.518Z,18.45
2016-05-21T11:08:55.738Z,18.37
2016-05-21T11:09:55.804Z,18.4
2016-05-21T11:10:55.838Z,18.4
2016-05-21T11:11:56.544Z,18.47
2016-05-21T11:12:55.796Z,18.4
2016-05-21T11:13:56.002Z,18.41
2016-05-21T11:14:55.724Z,18.41
2016-05-21T11:15:56.117Z,18.4
2016-05-21T11:16:56.182Z,18.45
2016-05-21T11:17:56.201Z,18.43
2016-05-21T11:18:56.265Z,18.45
2016-05-21T11:19:56.300Z,18.45
2016-05-21T11:20:56.365Z,18.43
2016-05-21T11:21:56.414Z,18.47
2016-05-21T11:22:56.448Z,18.5
2016-05-21T11:23:56.514Z,18.47
2016-05-21T11:24:56.563Z,18.47
2016-05-21T11:25:56.597Z,18.38
2016-05-21T11:26:56.661Z,18.49
2016-05-21T11:27:56.712Z,18.44
2016-05-21T11:28:56.589Z,18.47
2016-05-21T11:29:56.639Z,18.47
2016-05-21T11:30:56.860Z,18.5
2016-05-21T11:31:56.925Z,18.5
2016-05-21T11:32:56.819Z,18.45
2016-05-21T11:33:56.853Z,18.52
2016-05-21T11:34:56.918Z,18.47
2016-05-21T11:35:57.139Z,18.52
2016-05-21T11:36:57.174Z,18.5
2016-05-21T11:37:57.224Z,18.52
2016-05-21T11:38:57.132Z,18.5
2016-05-21T11:39:57.150Z,18.52
2016-05-21T11:40:57.371Z,18.5
2016-05-21T11:41:57.687Z,18.5
2016-05-21T11:42:57.298Z,18.52
2016-05-21T11:43:57.380Z,18.47
2016-05-21T11:44:57.570Z,18.5
2016-05-21T11:45:57.604Z,18.52
2016-05-21T11:46:57.685Z,18.56
2016-05-21T11:47:57.719Z,18.45
2016-05-21T11:48:57.768Z,18.53
2016-05-21T11:49:57.834Z,18.56
2016-05-21T11:50:57.883Z,18.52
2016-05-21T11:51:57.932Z,18.53
2016-05-21T11:52:57.842Z,18.53
2016-05-21T11:53:57.891Z,18.53
2016-05-21T11:54:57.925Z,18.52
2016-05-21T11:55:58.131Z,18.53
2016-05-21T11:56:58.337Z,18.53
2016-05-21T11:57:58.277Z,18.52
2016-05-21T11:58:58.295Z,18.55
2016-05-21T11:59:58.172Z,18.52
2016-05-21T12:00:58.394Z,18.56
2016-05-21T12:01:58.443Z,18.52
2016-05-21T12:02:58.494Z,18.53
2016-05-21T12:03:58.575Z,18.55
2016-05-21T12:04:58.608Z,18.52
2016-05-21T12:05:58.626Z,18.52
2016-05-21T12:06:58.691Z,18.5
2016-05-21T12:07:58.741Z,18.58
2016-05-21T12:08:58.775Z,18.49
2016-05-21T12:09:58.841Z,18.5
2016-05-21T12:10:58.733Z,18.47
2016-05-21T12:11:58.955Z,18.52
2016-05-21T12:12:59.004Z,18.5
2016-05-21T12:13:59.054Z,18.5
2016-05-21T12:14:58.948Z,18.56
2016-05-21T12:15:59.169Z,18.6
2016-05-21T12:16:59.031Z,18.52
2016-05-21T12:17:59.268Z,18.56
2016-05-21T12:18:59.302Z,18.53
2016-05-21T12:19:59.336Z,18.53
2016-05-21T12:20:59.245Z,18.56
2016-05-21T12:21:59.451Z,18.6
2016-05-21T12:22:59.359Z,18.45
2016-05-21T12:23:59.550Z,18.55
2016-05-21T12:24:59.631Z,18.47
2016-05-21T12:25:59.664Z,18.5
2016-05-21T12:27:00.011Z,18.52
2016-05-21T12:27:59.764Z,18.5
2016-05-21T12:28:59.672Z,18.53
2016-05-21T12:29:59.847Z,18.65
2016-05-21T12:30:59.912Z,18.63
2016-05-21T12:31:59.962Z,18.65
2016-05-21T12:33:00.012Z,18.6
2016-05-21T12:34:00.061Z,18.52
2016-05-21T12:35:00.127Z,18.6
2016-05-21T12:36:00.191Z,18.55
2016-05-21T12:37:00.225Z,18.66
2016-05-21T12:38:00.259Z,18.68
2016-05-21T12:39:00.184Z,18.6
2016-05-21T12:40:00.374Z,18.62
2016-05-21T12:41:00.423Z,18.65
2016-05-21T12:42:00.333Z,18.65
2016-05-21T12:43:00.538Z,18.63
2016-05-21T12:44:00.572Z,18.66
2016-05-21T12:45:00.622Z,18.56
2016-05-21T12:46:00.546Z,18.62
2016-05-21T12:47:00.737Z,18.66
2016-05-21T12:48:00.786Z,18.6
2016-05-21T12:49:00.820Z,18.62
2016-05-21T12:50:00.885Z,18.65
2016-05-21T12:51:00.951Z,18.66
2016-05-21T12:52:00.969Z,18.63
2016-05-21T12:53:01.034Z,18.62
2016-05-21T12:54:01.115Z,18.55
2016-05-21T12:55:01.133Z,18.63
2016-05-21T12:56:01.183Z,18.62
2016-05-21T12:57:01.264Z,18.62
2016-05-21T12:58:01.297Z,18.6
2016-05-21T12:59:01.331Z,18.65